Terminal Aerodrome Forecast
Issued by NWS Louisville, KY

Home | Current Version | Previous Version | Text Only | Print | Product List | Glossary On
Versions: 1 2 3 4 5 6 7 8 9 10 11 12 13 14 15
000
FTUS43 KLMK 171721
TAFSDF
TAF
KSDF 171721Z 1718/1824 20005KT P6SM VCSH OVC050
     FM172100 18004KT P6SM OVC035
     FM172300 18004KT P6SM OVC025
     FM180200 17004KT 6SM -DZ BR OVC013
     FM181900 23006KT P6SM OVC025=

USA.gov is the U.S. government's official web portal to all federal, state and local government web resources and services.